sensor_id;sensor_type;location;lat;lon;timestamp;P1;durP1;ratioP1;P2;durP2;ratioP2
30850;SDS011;17567;48.382;9.102;2022-07-29T00:03:47;6.00;;;3.70;;
30850;SDS011;17567;48.382;9.102;2022-07-29T00:08:49;4.17;;;3.87;;
30850;SDS011;17567;48.382;9.102;2022-07-29T00:13:50;5.13;;;3.90;;
30850;SDS011;17567;48.382;9.102;2022-07-29T00:18:51;4.67;;;4.27;;
30850;SDS011;17567;48.382;9.102;2022-07-29T00:23:52;5.83;;;5.23;;
30850;SDS011;17567;48.382;9.102;2022-07-29T00:28:53;5.93;;;5.33;;
30850;SDS011;17567;48.382;9.102;2022-07-29T00:33:54;7.17;;;6.47;;
30850;SDS011;17567;48.382;9.102;2022-07-29T00:38:55;10.00;;;6.70;;
30850;SDS011;17567;48.382;9.102;2022-07-29T00:43:56;7.90;;;6.80;;
30850;SDS011;17567;48.382;9.102;2022-07-29T00:48:57;5.13;;;4.73;;
30850;SDS011;17567;48.382;9.102;2022-07-29T00:53:58;4.63;;;4.23;;
30850;SDS011;17567;48.382;9.102;2022-07-29T00:58:59;4.70;;;4.30;;
30850;SDS011;17567;48.382;9.102;2022-07-29T01:04:00;5.37;;;3.93;;
30850;SDS011;17567;48.382;9.102;2022-07-29T01:09:01;4.27;;;3.93;;
30850;SDS011;17567;48.382;9.102;2022-07-29T01:14:03;6.73;;;4.27;;
30850;SDS011;17567;48.382;9.102;2022-07-29T01:19:45;6.53;;;4.87;;
30850;SDS011;17567;48.382;9.102;2022-07-29T01:24:48;5.20;;;4.73;;
30850;SDS011;17567;48.382;9.102;2022-07-29T01:29:55;7.67;;;5.47;;
30850;SDS011;17567;48.382;9.102;2022-07-29T01:35:17;5.80;;;5.30;;
30850;SDS011;17567;48.382;9.102;2022-07-29T01:40:20;7.57;;;5.33;;
30850;SDS011;17567;48.382;9.102;2022-07-29T01:50:34;6.60;;;6.00;;
30850;SDS011;17567;48.382;9.102;2022-07-29T01:55:38;7.50;;;6.50;;
30850;SDS011;17567;48.382;9.102;2022-07-29T02:00:39;7.97;;;6.80;;
30850;SDS011;17567;48.382;9.102;2022-07-29T02:05:42;8.33;;;7.53;;
30850;SDS011;17567;48.382;9.102;2022-07-29T02:10:44;8.00;;;7.23;;
30850;SDS011;17567;48.382;9.102;2022-07-29T02:15:46;9.30;;;7.90;;
30850;SDS011;17567;48.382;9.102;2022-07-29T02:20:48;8.80;;;7.90;;
30850;SDS011;17567;48.382;9.102;2022-07-29T02:25:56;12.07;;;8.60;;
30850;SDS011;17567;48.382;9.102;2022-07-29T02:31:00;11.93;;;9.20;;
30850;SDS011;17567;48.382;9.102;2022-07-29T02:36:02;11.93;;;7.50;;
30850;SDS011;17567;48.382;9.102;2022-07-29T02:41:13;7.70;;;7.00;;
30850;SDS011;17567;48.382;9.102;2022-07-29T02:46:19;6.53;;;5.93;;
30850;SDS011;17567;48.382;9.102;2022-07-29T02:51:32;8.43;;;6.07;;
30850;SDS011;17567;48.382;9.102;2022-07-29T02:56:40;13.87;;;9.10;;
30850;SDS011;17567;48.382;9.102;2022-07-29T03:01:42;12.17;;;8.60;;
30850;SDS011;17567;48.382;9.102;2022-07-29T03:06:44;9.73;;;8.77;;
30850;SDS011;17567;48.382;9.102;2022-07-29T03:11:45;11.40;;;8.77;;
30850;SDS011;17567;48.382;9.102;2022-07-29T03:16:47;7.67;;;6.70;;
30850;SDS011;17567;48.382;9.102;2022-07-29T03:21:49;7.50;;;6.73;;
30850;SDS011;17567;48.382;9.102;2022-07-29T03:26:50;6.70;;;6.10;;
30850;SDS011;17567;48.382;9.102;2022-07-29T03:31:51;8.43;;;6.50;;
30850;SDS011;17567;48.382;9.102;2022-07-29T03:36:52;5.60;;;5.10;;
30850;SDS011;17567;48.382;9.102;2022-07-29T03:41:53;6.93;;;6.23;;
30850;SDS011;17567;48.382;9.102;2022-07-29T03:46:57;5.73;;;5.03;;
30850;SDS011;17567;48.382;9.102;2022-07-29T03:52:01;4.87;;;4.43;;
30850;SDS011;17567;48.382;9.102;2022-07-29T03:57:02;5.37;;;4.80;;
30850;SDS011;17567;48.382;9.102;2022-07-29T04:02:05;5.03;;;4.63;;
30850;SDS011;17567;48.382;9.102;2022-07-29T04:07:13;3.67;;;3.40;;
30850;SDS011;17567;48.382;9.102;2022-07-29T04:12:15;4.53;;;3.20;;
30850;SDS011;17567;48.382;9.102;2022-07-29T04:17:15;4.50;;;4.00;;
30850;SDS011;17567;48.382;9.102;2022-07-29T04:22:16;5.27;;;4.10;;
30850;SDS011;17567;48.382;9.102;2022-07-29T04:27:17;4.80;;;4.40;;
30850;SDS011;17567;48.382;9.102;2022-07-29T04:32:18;6.43;;;4.50;;
30850;SDS011;17567;48.382;9.102;2022-07-29T04:37:18;4.50;;;3.93;;
30850;SDS011;17567;48.382;9.102;2022-07-29T04:42:19;4.30;;;4.00;;
30850;SDS011;17567;48.382;9.102;2022-07-29T04:47:19;6.63;;;4.40;;
30850;SDS011;17567;48.382;9.102;2022-07-29T04:52:20;6.00;;;4.07;;
30850;SDS011;17567;48.382;9.102;2022-07-29T04:57:20;5.10;;;4.10;;
30850;SDS011;17567;48.382;9.102;2022-07-29T05:02:21;4.63;;;4.20;;
30850;SDS011;17567;48.382;9.102;2022-07-29T05:07:22;4.70;;;4.27;;
30850;SDS011;17567;48.382;9.102;2022-07-29T05:12:23;5.00;;;4.50;;
30850;SDS011;17567;48.382;9.102;2022-07-29T05:17:24;4.90;;;4.23;;
30850;SDS011;17567;48.382;9.102;2022-07-29T05:22:25;3.47;;;3.17;;
30850;SDS011;17567;48.382;9.102;2022-07-29T05:27:26;4.03;;;3.73;;
30850;SDS011;17567;48.382;9.102;2022-07-29T05:32:26;4.70;;;4.30;;
30850;SDS011;17567;48.382;9.102;2022-07-29T05:37:27;4.93;;;3.60;;
30850;SDS011;17567;48.382;9.102;2022-07-29T05:42:27;8.63;;;4.67;;
30850;SDS011;17567;48.382;9.102;2022-07-29T05:47:29;4.50;;;4.10;;
30850;SDS011;17567;48.382;9.102;2022-07-29T05:52:29;3.43;;;3.23;;
30850;SDS011;17567;48.382;9.102;2022-07-29T05:57:30;3.80;;;3.50;;
30850;SDS011;17567;48.382;9.102;2022-07-29T06:02:31;4.80;;;4.40;;
30850;SDS011;17567;48.382;9.102;2022-07-29T06:07:32;5.27;;;3.97;;
30850;SDS011;17567;48.382;9.102;2022-07-29T06:12:34;5.10;;;4.60;;
30850;SDS011;17567;48.382;9.102;2022-07-29T06:17:34;4.97;;;4.53;;
30850;SDS011;17567;48.382;9.102;2022-07-29T06:22:35;3.60;;;3.40;;
30850;SDS011;17567;48.382;9.102;2022-07-29T06:27:35;3.97;;;3.67;;
30850;SDS011;17567;48.382;9.102;2022-07-29T06:32:36;5.20;;;3.67;;
30850;SDS011;17567;48.382;9.102;2022-07-29T06:37:37;4.00;;;3.70;;
30850;SDS011;17567;48.382;9.102;2022-07-29T06:42:41;4.87;;;4.40;;
30850;SDS011;17567;48.382;9.102;2022-07-29T06:47:42;5.47;;;3.60;;
30850;SDS011;17567;48.382;9.102;2022-07-29T06:52:43;4.10;;;3.80;;
30850;SDS011;17567;48.382;9.102;2022-07-29T06:57:44;4.10;;;3.80;;
30850;SDS011;17567;48.382;9.102;2022-07-29T07:02:45;4.57;;;4.17;;
30850;SDS011;17567;48.382;9.102;2022-07-29T07:07:45;4.63;;;3.90;;
30850;SDS011;17567;48.382;9.102;2022-07-29T07:12:46;8.43;;;3.97;;
30850;SDS011;17567;48.382;9.102;2022-07-29T07:17:49;4.50;;;4.10;;
30850;SDS011;17567;48.382;9.102;2022-07-29T07:22:50;8.37;;;4.33;;
30850;SDS011;17567;48.382;9.102;2022-07-29T07:27:51;6.43;;;3.93;;
30850;SDS011;17567;48.382;9.102;2022-07-29T07:32:52;5.30;;;4.10;;
30850;SDS011;17567;48.382;9.102;2022-07-29T07:37:53;3.93;;;3.60;;
30850;SDS011;17567;48.382;9.102;2022-07-29T07:42:54;4.50;;;4.10;;
30850;SDS011;17567;48.382;9.102;2022-07-29T07:47:55;5.73;;;4.07;;
30850;SDS011;17567;48.382;9.102;2022-07-29T07:52:55;6.20;;;3.83;;
30850;SDS011;17567;48.382;9.102;2022-07-29T07:57:59;8.47;;;3.77;;
30850;SDS011;17567;48.382;9.102;2022-07-29T08:03:00;4.05;;;3.75;;
30850;SDS011;17567;48.382;9.102;2022-07-29T08:08:00;4.70;;;4.20;;
30850;SDS011;17567;48.382;9.102;2022-07-29T08:13:03;7.10;;;3.80;;
30850;SDS011;17567;48.382;9.102;2022-07-29T08:18:08;4.20;;;3.60;;
30850;SDS011;17567;48.382;9.102;2022-07-29T08:23:09;4.05;;;3.72;;
30850;SDS011;17567;48.382;9.102;2022-07-29T08:28:09;4.18;;;3.88;;
30850;SDS011;17567;48.382;9.102;2022-07-29T08:33:10;7.60;;;4.03;;
30850;SDS011;17567;48.382;9.102;2022-07-29T08:38:11;4.20;;;3.85;;
30850;SDS011;17567;48.382;9.102;2022-07-29T08:43:13;5.20;;;3.70;;
30850;SDS011;17567;48.382;9.102;2022-07-29T08:48:15;4.88;;;3.55;;
30850;SDS011;17567;48.382;9.102;2022-07-29T08:53:17;4.28;;;3.88;;
30850;SDS011;17567;48.382;9.102;2022-07-29T08:58:18;4.00;;;3.70;;
30850;SDS011;17567;48.382;9.102;2022-07-29T09:03:20;5.50;;;3.42;;
30850;SDS011;17567;48.382;9.102;2022-07-29T09:08:24;7.72;;;3.70;;
30850;SDS011;17567;48.382;9.102;2022-07-29T09:13:25;3.95;;;3.65;;
30850;SDS011;17567;48.382;9.102;2022-07-29T09:18:40;6.13;;;3.70;;
30850;SDS011;17567;48.382;9.102;2022-07-29T09:23:41;4.13;;;3.72;;
30850;SDS011;17567;48.382;9.102;2022-07-29T09:28:59;3.85;;;3.45;;
30850;SDS011;17567;48.382;9.102;2022-07-29T09:34:00;7.25;;;3.72;;
30850;SDS011;17567;48.382;9.102;2022-07-29T09:39:02;4.30;;;3.90;;
30850;SDS011;17567;48.382;9.102;2022-07-29T09:44:03;6.47;;;3.92;;
30850;SDS011;17567;48.382;9.102;2022-07-29T09:49:10;5.50;;;3.50;;
30850;SDS011;17567;48.382;9.102;2022-07-29T09:59:22;5.95;;;3.80;;
30850;SDS011;17567;48.382;9.102;2022-07-29T10:04:39;3.70;;;3.40;;
30850;SDS011;17567;48.382;9.102;2022-07-29T10:09:40;4.65;;;3.45;;
30850;SDS011;17567;48.382;9.102;2022-07-29T10:14:54;10.27;;;3.20;;
30850;SDS011;17567;48.382;9.102;2022-07-29T10:19:56;6.43;;;3.50;;
30850;SDS011;17567;48.382;9.102;2022-07-29T10:24:56;4.40;;;3.45;;
30850;SDS011;17567;48.382;9.102;2022-07-29T10:29:57;3.70;;;3.40;;
30850;SDS011;17567;48.382;9.102;2022-07-29T10:35:04;7.68;;;3.45;;
30850;SDS011;17567;48.382;9.102;2022-07-29T10:46:27;3.95;;;3.40;;
30850;SDS011;17567;48.382;9.102;2022-07-29T10:51:50;5.65;;;3.72;;
30850;SDS011;17567;48.382;9.102;2022-07-29T11:07:40;3.58;;;3.28;;
30850;SDS011;17567;48.382;9.102;2022-07-29T11:24:13;4.05;;;3.67;;
30850;SDS011;17567;48.382;9.102;2022-07-29T11:29:19;5.70;;;3.35;;
30850;SDS011;17567;48.382;9.102;2022-07-29T11:34:29;5.22;;;3.40;;
30850;SDS011;17567;48.382;9.102;2022-07-29T11:39:39;3.42;;;3.20;;
30850;SDS011;17567;48.382;9.102;2022-07-29T11:50:06;6.18;;;3.25;;
30850;SDS011;17567;48.382;9.102;2022-07-29T11:55:12;6.60;;;3.67;;
30850;SDS011;17567;48.382;9.102;2022-07-29T12:10:38;5.63;;;4.13;;
30850;SDS011;17567;48.382;9.102;2022-07-29T12:15:39;4.50;;;3.15;;
30850;SDS011;17567;48.382;9.102;2022-07-29T12:20:41;4.15;;;3.20;;
30850;SDS011;17567;48.382;9.102;2022-07-29T12:25:42;6.47;;;3.35;;
30850;SDS011;17567;48.382;9.102;2022-07-29T12:30:45;6.57;;;3.88;;
30850;SDS011;17567;48.382;9.102;2022-07-29T12:35:56;5.13;;;3.60;;
30850;SDS011;17567;48.382;9.102;2022-07-29T12:41:00;12.43;;;3.60;;
30850;SDS011;17567;48.382;9.102;2022-07-29T12:46:14;7.03;;;3.05;;
30850;SDS011;17567;48.382;9.102;2022-07-29T12:51:16;6.60;;;3.05;;
30850;SDS011;17567;48.382;9.102;2022-07-29T12:56:23;4.15;;;3.20;;
30850;SDS011;17567;48.382;9.102;2022-07-29T13:01:26;6.38;;;3.55;;
30850;SDS011;17567;48.382;9.102;2022-07-29T13:11:31;6.78;;;3.45;;
30850;SDS011;17567;48.382;9.102;2022-07-29T13:16:32;6.30;;;3.50;;
30850;SDS011;17567;48.382;9.102;2022-07-29T13:21:33;4.50;;;3.63;;
30850;SDS011;17567;48.382;9.102;2022-07-29T13:26:34;6.95;;;3.83;;
30850;SDS011;17567;48.382;9.102;2022-07-29T13:31:40;5.80;;;3.60;;
30850;SDS011;17567;48.382;9.102;2022-07-29T13:36:43;4.85;;;3.65;;
30850;SDS011;17567;48.382;9.102;2022-07-29T13:41:44;4.07;;;3.67;;
30850;SDS011;17567;48.382;9.102;2022-07-29T13:46:47;4.65;;;3.58;;
30850;SDS011;17567;48.382;9.102;2022-07-29T13:51:49;4.00;;;3.60;;
30850;SDS011;17567;48.382;9.102;2022-07-29T13:56:50;5.32;;;3.40;;
30850;SDS011;17567;48.382;9.102;2022-07-29T14:01:51;4.22;;;3.42;;
30850;SDS011;17567;48.382;9.102;2022-07-29T14:06:51;4.63;;;3.67;;
30850;SDS011;17567;48.382;9.102;2022-07-29T14:11:52;4.10;;;3.70;;
30850;SDS011;17567;48.382;9.102;2022-07-29T14:16:56;4.75;;;4.15;;
30850;SDS011;17567;48.382;9.102;2022-07-29T14:21:56;5.53;;;3.63;;
30850;SDS011;17567;48.382;9.102;2022-07-29T14:26:57;5.05;;;3.95;;
30850;SDS011;17567;48.382;9.102;2022-07-29T14:31:58;4.45;;;3.50;;
30850;SDS011;17567;48.382;9.102;2022-07-29T14:37:04;3.95;;;3.65;;
30850;SDS011;17567;48.382;9.102;2022-07-29T14:42:05;4.28;;;3.78;;
30850;SDS011;17567;48.382;9.102;2022-07-29T14:47:09;5.00;;;3.53;;
30850;SDS011;17567;48.382;9.102;2022-07-29T14:52:10;3.67;;;3.38;;
30850;SDS011;17567;48.382;9.102;2022-07-29T14:57:10;3.88;;;3.58;;
30850;SDS011;17567;48.382;9.102;2022-07-29T15:02:11;4.22;;;3.80;;
30850;SDS011;17567;48.382;9.102;2022-07-29T15:07:12;4.10;;;3.80;;
30850;SDS011;17567;48.382;9.102;2022-07-29T15:12:12;7.03;;;4.00;;
30850;SDS011;17567;48.382;9.102;2022-07-29T15:17:13;5.72;;;3.47;;
30850;SDS011;17567;48.382;9.102;2022-07-29T15:22:14;4.20;;;3.90;;
30850;SDS011;17567;48.382;9.102;2022-07-29T15:27:14;4.82;;;3.58;;
30850;SDS011;17567;48.382;9.102;2022-07-29T15:32:18;4.55;;;3.63;;
30850;SDS011;17567;48.382;9.102;2022-07-29T15:37:19;4.55;;;4.15;;
30850;SDS011;17567;48.382;9.102;2022-07-29T15:42:20;4.10;;;3.70;;
30850;SDS011;17567;48.382;9.102;2022-07-29T15:47:21;9.82;;;4.00;;
30850;SDS011;17567;48.382;9.102;2022-07-29T15:52:22;4.35;;;3.95;;
30850;SDS011;17567;48.382;9.102;2022-07-29T15:57:22;4.50;;;4.10;;
30850;SDS011;17567;48.382;9.102;2022-07-29T16:02:23;5.47;;;3.65;;
30850;SDS011;17567;48.382;9.102;2022-07-29T16:07:24;6.45;;;4.68;;
30850;SDS011;17567;48.382;9.102;2022-07-29T16:12:26;4.80;;;3.92;;
30850;SDS011;17567;48.382;9.102;2022-07-29T16:17:26;6.85;;;3.90;;
30850;SDS011;17567;48.382;9.102;2022-07-29T16:22:27;4.45;;;4.10;;
30850;SDS011;17567;48.382;9.102;2022-07-29T16:27:30;4.30;;;3.90;;
30850;SDS011;17567;48.382;9.102;2022-07-29T16:32:32;3.35;;;3.03;;
30850;SDS011;17567;48.382;9.102;2022-07-29T16:37:33;5.55;;;3.38;;
30850;SDS011;17567;48.382;9.102;2022-07-29T16:42:36;3.70;;;3.40;;
30850;SDS011;17567;48.382;9.102;2022-07-29T16:47:36;3.63;;;2.83;;
30850;SDS011;17567;48.382;9.102;2022-07-29T16:52:37;7.38;;;3.10;;
30850;SDS011;17567;48.382;9.102;2022-07-29T16:57:38;4.03;;;3.00;;
30850;SDS011;17567;48.382;9.102;2022-07-29T17:02:41;2.92;;;2.60;;
30850;SDS011;17567;48.382;9.102;2022-07-29T17:07:42;3.88;;;2.65;;
30850;SDS011;17567;48.382;9.102;2022-07-29T17:12:42;3.03;;;2.72;;
30850;SDS011;17567;48.382;9.102;2022-07-29T17:17:44;7.18;;;3.08;;
30850;SDS011;17567;48.382;9.102;2022-07-29T17:22:46;3.15;;;2.85;;
30850;SDS011;17567;48.382;9.102;2022-07-29T17:27:49;4.55;;;2.78;;
30850;SDS011;17567;48.382;9.102;2022-07-29T17:32:50;4.63;;;2.40;;
30850;SDS011;17567;48.382;9.102;2022-07-29T17:37:51;2.65;;;2.40;;
30850;SDS011;17567;48.382;9.102;2022-07-29T17:42:52;4.10;;;3.00;;
30850;SDS011;17567;48.382;9.102;2022-07-29T17:47:53;2.90;;;2.60;;
30850;SDS011;17567;48.382;9.102;2022-07-29T17:52:54;3.15;;;2.60;;
30850;SDS011;17567;48.382;9.102;2022-07-29T17:57:56;3.72;;;2.70;;
30850;SDS011;17567;48.382;9.102;2022-07-29T18:02:58;5.18;;;2.83;;
30850;SDS011;17567;48.382;9.102;2022-07-29T18:07:58;3.53;;;3.05;;
30850;SDS011;17567;48.382;9.102;2022-07-29T18:12:59;3.42;;;2.70;;
30850;SDS011;17567;48.382;9.102;2022-07-29T18:18:01;4.32;;;2.75;;
30850;SDS011;17567;48.382;9.102;2022-07-29T18:23:02;3.33;;;2.90;;
30850;SDS011;17567;48.382;9.102;2022-07-29T18:28:03;3.25;;;3.00;;
30850;SDS011;17567;48.382;9.102;2022-07-29T18:33:05;4.47;;;2.60;;
30850;SDS011;17567;48.382;9.102;2022-07-29T18:38:07;3.17;;;2.60;;
30850;SDS011;17567;48.382;9.102;2022-07-29T18:43:11;3.28;;;2.88;;
30850;SDS011;17567;48.382;9.102;2022-07-29T18:48:12;3.45;;;2.95;;
30850;SDS011;17567;48.382;9.102;2022-07-29T18:53:13;4.78;;;3.20;;
30850;SDS011;17567;48.382;9.102;2022-07-29T18:58:14;7.22;;;3.13;;
30850;SDS011;17567;48.382;9.102;2022-07-29T19:03:15;2.90;;;2.70;;
30850;SDS011;17567;48.382;9.102;2022-07-29T19:08:16;3.85;;;2.92;;
30850;SDS011;17567;48.382;9.102;2022-07-29T19:13:16;3.40;;;3.20;;
30850;SDS011;17567;48.382;9.102;2022-07-29T19:18:17;4.32;;;3.08;;
30850;SDS011;17567;48.382;9.102;2022-07-29T19:23:18;3.35;;;3.05;;
30850;SDS011;17567;48.382;9.102;2022-07-29T19:28:18;3.20;;;2.97;;
30850;SDS011;17567;48.382;9.102;2022-07-29T19:33:19;3.63;;;2.67;;
30850;SDS011;17567;48.382;9.102;2022-07-29T19:38:20;4.28;;;3.38;;
30850;SDS011;17567;48.382;9.102;2022-07-29T19:43:21;3.78;;;3.33;;
30850;SDS011;17567;48.382;9.102;2022-07-29T19:48:22;4.30;;;3.35;;
30850;SDS011;17567;48.382;9.102;2022-07-29T19:53:22;3.72;;;3.33;;
30850;SDS011;17567;48.382;9.102;2022-07-29T19:58:23;4.22;;;3.92;;
30850;SDS011;17567;48.382;9.102;2022-07-29T20:03:26;4.77;;;3.43;;
30850;SDS011;17567;48.382;9.102;2022-07-29T20:08:30;5.45;;;3.33;;
30850;SDS011;17567;48.382;9.102;2022-07-29T20:13:31;3.83;;;2.97;;
30850;SDS011;17567;48.382;9.102;2022-07-29T20:18:34;4.03;;;3.57;;
30850;SDS011;17567;48.382;9.102;2022-07-29T20:23:34;4.23;;;3.80;;
30850;SDS011;17567;48.382;9.102;2022-07-29T20:28:37;5.00;;;3.70;;
30850;SDS011;17567;48.382;9.102;2022-07-29T20:33:39;4.83;;;3.70;;
30850;SDS011;17567;48.382;9.102;2022-07-29T20:38:39;3.50;;;3.20;;
30850;SDS011;17567;48.382;9.102;2022-07-29T20:43:40;4.00;;;3.70;;
30850;SDS011;17567;48.382;9.102;2022-07-29T20:48:41;3.83;;;3.53;;
30850;SDS011;17567;48.382;9.102;2022-07-29T20:53:41;3.63;;;3.33;;
30850;SDS011;17567;48.382;9.102;2022-07-29T20:58:42;7.53;;;3.77;;
30850;SDS011;17567;48.382;9.102;2022-07-29T21:03:43;4.07;;;3.63;;
30850;SDS011;17567;48.382;9.102;2022-07-29T21:08:43;7.07;;;3.90;;
30850;SDS011;17567;48.382;9.102;2022-07-29T21:13:44;6.37;;;4.47;;
30850;SDS011;17567;48.382;9.102;2022-07-29T21:18:45;5.70;;;4.30;;
30850;SDS011;17567;48.382;9.102;2022-07-29T21:23:46;4.40;;;4.00;;
30850;SDS011;17567;48.382;9.102;2022-07-29T21:28:47;7.30;;;4.20;;
30850;SDS011;17567;48.382;9.102;2022-07-29T21:33:47;4.43;;;4.07;;
30850;SDS011;17567;48.382;9.102;2022-07-29T21:38:48;4.83;;;4.47;;
30850;SDS011;17567;48.382;9.102;2022-07-29T21:43:49;6.57;;;4.47;;
30850;SDS011;17567;48.382;9.102;2022-07-29T21:48:49;9.80;;;4.33;;
30850;SDS011;17567;48.382;9.102;2022-07-29T21:53:50;6.73;;;4.00;;
30850;SDS011;17567;48.382;9.102;2022-07-29T21:58:51;3.53;;;3.33;;
30850;SDS011;17567;48.382;9.102;2022-07-29T22:03:51;5.03;;;4.10;;
30850;SDS011;17567;48.382;9.102;2022-07-29T22:08:52;4.67;;;4.20;;
30850;SDS011;17567;48.382;9.102;2022-07-29T22:13:53;3.90;;;3.47;;
30850;SDS011;17567;48.382;9.102;2022-07-29T22:18:53;4.37;;;4.07;;
30850;SDS011;17567;48.382;9.102;2022-07-29T22:23:54;4.67;;;3.80;;
30850;SDS011;17567;48.382;9.102;2022-07-29T22:28:55;5.43;;;4.00;;
30850;SDS011;17567;48.382;9.102;2022-07-29T22:33:55;4.50;;;4.07;;
30850;SDS011;17567;48.382;9.102;2022-07-29T22:38:56;5.87;;;4.47;;
30850;SDS011;17567;48.382;9.102;2022-07-29T22:43:56;7.57;;;4.30;;
30850;SDS011;17567;48.382;9.102;2022-07-29T22:48:57;4.77;;;4.37;;
30850;SDS011;17567;48.382;9.102;2022-07-29T22:53:58;4.43;;;3.60;;
30850;SDS011;17567;48.382;9.102;2022-07-29T22:58:58;5.80;;;3.57;;
30850;SDS011;17567;48.382;9.102;2022-07-29T23:03:59;5.07;;;4.13;;
30850;SDS011;17567;48.382;9.102;2022-07-29T23:09:00;6.10;;;4.10;;
30850;SDS011;17567;48.382;9.102;2022-07-29T23:14:00;3.80;;;3.50;;
30850;SDS011;17567;48.382;9.102;2022-07-29T23:19:01;9.80;;;4.00;;
30850;SDS011;17567;48.382;9.102;2022-07-29T23:24:02;5.27;;;3.97;;
30850;SDS011;17567;48.382;9.102;2022-07-29T23:29:03;3.93;;;3.63;;
30850;SDS011;17567;48.382;9.102;2022-07-29T23:34:03;4.13;;;3.43;;
30850;SDS011;17567;48.382;9.102;2022-07-29T23:39:04;4.27;;;3.93;;
30850;SDS011;17567;48.382;9.102;2022-07-29T23:44:09;3.93;;;3.53;;
30850;SDS011;17567;48.382;9.102;2022-07-29T23:49:10;4.07;;;3.27;;
30850;SDS011;17567;48.382;9.102;2022-07-29T23:54:12;4.40;;;3.47;;
30850;SDS011;17567;48.382;9.102;2022-07-29T23:59:13;3.40;;;2.97;;
